Flight Track Log - Related Links

Times and Time Zones

All times are in EDT time to prevent confusion due to time zone crossing. See the UAL4115 flight status page for this flight to view local times or setup timezone preferences in your user account.

Time Position Orientation Groundspeed Altitude Reporting Facility
EDT Latitude Longitude Course Direction KTS MPH feet Rate Location/Type
Thu 08:34:07 AM 25.6956 -100.0931 44° Northeast 501 577 35,000  Level Houston Center
Thu 08:35:09 AM 25.7944 -99.9881 44° Northeast 499 574 35,000  Level Houston Center
Thu 08:36:11 AM 25.8911 -99.8828 44° Northeast 493 567 35,000 -48 Level Houston Center
Thu 08:37:13 AM 25.9894 -99.7767 44° Northeast 492 566 34,900  Descending Houston Center
Thu 08:38:14 AM 26.0892 -99.6714 43° Northeast 495 570 35,000 49 Climbing Houston Center
Thu 08:39:16 AM 26.1889 -99.5619 45° Northeast 501 577 35,000  Level Houston Center
Thu 08:40:18 AM 26.2894 -99.4528 44° Northeast 504 580 35,000  Level Houston Center
Thu 08:41:20 AM 26.4097 -99.3222 44° Northeast 505 581 35,000  Level Houston Center
Thu 08:42:21 AM 26.5081 -99.2097 46° Northeast 506 582 35,000  Level Houston Center
Thu 08:43:23 AM 26.6044 -99.0953 47° Northeast 507 583 35,000  Level Houston Center
Thu 08:44:25 AM 26.6981 -98.9783 48° Northeast 508 585 35,000  Level Houston Center
Thu 08:45:27 AM 26.8025 -98.8769 41° Northeast 502 578 35,000  Level Houston Center
Thu 08:46:29 AM 26.9361 -98.7728 35° Northeast 496 571 35,000  Level Houston Center
Thu 08:47:31 AM 27.0542 -98.7058 27° Northeast 480 552 35,000  Level Houston Center
Thu 08:48:33 AM 27.1731 -98.6397 26° Northeast 481 554 35,000  Level Houston Center
Thu 08:49:35 AM 27.2914 -98.5736 26° Northeast 479 551 35,000  Level Houston Center
Thu 08:50:37 AM 27.4106 -98.5075 26° Northeast 482 555 35,000  Level Houston Center
Thu 08:51:38 AM 27.5542 -98.4275 26° Northeast 483 556 35,000  Level Houston Center
Thu 08:52:40 AM 27.6736 -98.3617 26° Northeast 482 555 35,000  Level Houston Center
Thu 08:53:42 AM 27.7928 -98.2928 27° Northeast 483 556 35,000  Level Houston Center
Thu 08:54:44 AM 27.8931 -98.1814 44° Northeast 505 581 35,000  Level Houston Center
Thu 08:55:46 AM 27.9908 -98.0644 47° Northeast 512 589 35,000  Level Houston Center
Thu 08:56:48 AM 28.0864 -97.9486 47° Northeast 509 586 35,000  Level Houston Center
Thu 08:57:50 AM 28.1967 -97.8156 47° Northeast 489 563 35,000  Level Houston Center
Thu 08:58:52 AM 28.2917 -97.7081 45° Northeast 483 556 35,000  Level Houston Center
Thu 08:59:54 AM 28.3844 -97.5958 47° Northeast 485 558 35,000  Level Houston Center
Thu 09:00:56 AM 28.4786 -97.4839 46° Northeast 489 563 35,000  Level Houston Center
Thu 09:01:58 AM 28.5922 -97.4311 22° Northeast 472 543 35,000 -242 Level Houston Center
Thu 09:03:00 AM 28.7058 -97.4639 346° North 431 496 34,500 -1,113 Descending Houston Center
Thu 09:04:02 AM 28.8456 -97.5039 346° North 429 494 32,700 -1,742 Descending Houston Center
Thu 09:05:04 AM 28.9722 -97.5031 360° North 455 524 30,900 -1,645 Descending Houston Center
Thu 09:06:06 AM 29.1022 -97.4892 North 466 536 29,300 -968 Descending Houston Center
Thu 09:07:08 AM 29.2319 -97.4347 20° North 494 568 28,900 -1,073 Descending Houston Center
Thu 09:08:09 AM 29.3486 -97.3464 33° Northeast 504 580 27,100 -1,659 Descending Houston Center
Thu 09:09:11 AM 29.4089 -97.1992 65° Northeast 515 593 25,500 -1,645 Descending Houston Center
Thu 09:10:13 AM 29.4308 -97.0381 81° East 506 582 23,700 -1,984 Descending Houston Center
Thu 09:11:15 AM 29.4522 -96.8808 81° East 489 563 21,400 -2,323 Descending Houston Center
Thu 09:12:17 AM 29.4703 -96.7414 82° East 432 497 18,900 -2,565 Descending Houston Center
Thu 09:13:19 AM 29.4978 -96.6167 76° East 407 468 16,100 -2,903 Descending Houston Center
Thu 09:14:21 AM 29.5456 -96.4800 68° East 391 450 12,900 -2,661 Descending Houston Center
Thu 09:15:23 AM 29.5450 -96.3575 90° East 385 443 10,600 -2,100 Descending Houston Center
Thu 09:15:41 AM 29.5458 -96.3178 89° East 377 434 10,100 -677 Descending Houston Center
Thu 09:16:25 AM 29.5447 -96.2447 91° East 357 411 9,900 -98 Descending Houston Center
Thu 09:16:42 AM 29.5450 -96.2075 89° East 337 388 10,000 -97 Climbing Houston Center
Thu 09:17:27 AM 29.5578 -96.1425 77° East 330 380 9,800 -561 Descending Houston Center
Thu 09:18:29 AM 29.6014 -96.0544 60° Northeast 320 368 9,000 -623 Descending Houston Center
Thu 09:18:44 AM 29.6208 -96.0189 58° Northeast 323 372 9,000 -689 Level Houston Center
Thu 09:19:30 AM 29.6653 -95.9639 47° Northeast 340 391 8,300 -885 Descending Houston Center
Thu 09:19:45 AM 29.6869 -95.9561 17° North 337 388 8,100 -1,161 Descending Houston Center
Thu 09:20:32 AM 29.7503 -95.9356 16° North 323 372 7,100 -1,075 Descending Houston Center
Thu 09:20:52 AM 29.7811 -95.9308 North 292 336 6,900 -97 Descending Houston Center
Thu 09:21:34 AM 29.8278 -95.9206 11° North 291 335 7,000 -288 Climbing Houston Center
Thu 09:22:36 AM 29.8972 -95.9067 10° North 258 297 6,400 -675 Descending Houston Center
Thu 09:22:54 AM 29.9178 -95.8839 44° Northeast 257 296 6,100 -871 Descending Houston Center
Thu 09:23:38 AM 29.9344 -95.8397 66° East 255 293 5,500 -984 Descending Houston Center
Thu 09:23:55 AM 29.9450 -95.8108 67° East 245 282 5,100 -484 Descending Houston Center
Thu 09:24:40 AM 29.9611 -95.7694 66° East 242 278 5,000 -98 Descending Houston Center
Thu 09:24:56 AM 29.9725 -95.7425 64° Northeast 226 260 5,000  Level Houston Center
Thu 09:25:42 AM 29.9867 -95.7061 66° East 223 257 5,000  Level Houston Center
Thu 09:25:57 AM 29.9922 -95.6800 76° East 214 246 5,000 -387 Level Houston Center
Thu 09:26:44 AM 29.9939 -95.6292 88° East 207 238 4,600 -826 Descending Houston Center
Thu 09:27:46 AM 29.9933 -95.5656 91° East 198 228 3,500 -968 Descending Houston Center
Thu 09:28:48 AM 29.9939 -95.5039 89° East 196 226 2,600 -871 Descending Houston Center
Thu 09:29:50 AM 29.9939 -95.4494 90° East 185 213 1,700 -774 Descending Houston Center
Thu 09:30:52 AM 29.9942 -95.4011 90° East 169 194 1,000 -581 Descending Houston Center
Thu 09:31:54 AM 29.9944 -95.3572 90° East 150 173 500 -484 Descending Houston Center
Thu 09:33:00 AM 29.9833 -95.3333 49° Northeast  Level FlightAware Approximate
Thu 09:40:00 AM 29.9844 -95.3414 49° Northeast  Level Estimated

Login

Don't have an account? Register now (free) for customized features, flight alerts, and more!